sensor_id;sensor_type;location;lat;lon;timestamp;pressure;altitude;pressure_sealevel;temperature;humidity
11499;BME280;5806;48.748;9.278;2023-08-06T00:00:06;99858.77;;;15.50;99.01
11499;BME280;5806;48.748;9.278;2023-08-06T00:02:34;99854.85;;;15.56;98.67
11499;BME280;5806;48.748;9.278;2023-08-06T00:05:02;99845.17;;;15.59;98.76
11499;BME280;5806;48.748;9.278;2023-08-06T00:07:29;99841.59;;;15.37;97.64
11499;BME280;5806;48.748;9.278;2023-08-06T00:09:57;99845.65;;;15.42;97.99
11499;BME280;5806;48.748;9.278;2023-08-06T00:12:25;99844.95;;;15.53;97.71
11499;BME280;5806;48.748;9.278;2023-08-06T00:14:53;99838.03;;;15.55;98.22
11499;BME280;5806;48.748;9.278;2023-08-06T00:17:21;99846.66;;;15.49;98.46
11499;BME280;5806;48.748;9.278;2023-08-06T00:19:48;99841.55;;;15.40;98.26
11499;BME280;5806;48.748;9.278;2023-08-06T00:22:16;99836.66;;;15.55;97.93
11499;BME280;5806;48.748;9.278;2023-08-06T00:24:43;99840.69;;;15.42;97.64
11499;BME280;5806;48.748;9.278;2023-08-06T00:27:11;99835.45;;;15.43;98.23
11499;BME280;5806;48.748;9.278;2023-08-06T00:29:38;99841.30;;;15.39;98.45
11499;BME280;5806;48.748;9.278;2023-08-06T00:32:06;99841.70;;;15.25;98.46
11499;BME280;5806;48.748;9.278;2023-08-06T00:34:33;99845.36;;;15.20;99.04
11499;BME280;5806;48.748;9.278;2023-08-06T00:37:01;99838.72;;;15.21;98.32
11499;BME280;5806;48.748;9.278;2023-08-06T00:39:28;99847.24;;;15.22;98.22
11499;BME280;5806;48.748;9.278;2023-08-06T00:41:56;99846.66;;;15.25;98.25
11499;BME280;5806;48.748;9.278;2023-08-06T00:44:24;99843.66;;;15.24;97.49
11499;BME280;5806;48.748;9.278;2023-08-06T00:46:52;99840.83;;;15.29;98.14
11499;BME280;5806;48.748;9.278;2023-08-06T00:49:19;99847.28;;;15.20;98.19
11499;BME280;5806;48.748;9.278;2023-08-06T00:51:47;99846.92;;;15.26;97.63
11499;BME280;5806;48.748;9.278;2023-08-06T00:54:15;99840.36;;;15.22;97.54
11499;BME280;5806;48.748;9.278;2023-08-06T00:56:43;99843.95;;;15.23;97.58
11499;BME280;5806;48.748;9.278;2023-08-06T00:59:11;99836.33;;;15.15;98.00
11499;BME280;5806;48.748;9.278;2023-08-06T01:01:39;99839.77;;;15.25;97.97
11499;BME280;5806;48.748;9.278;2023-08-06T01:04:07;99835.06;;;15.28;97.40
11499;BME280;5806;48.748;9.278;2023-08-06T01:06:44;99831.36;;;15.14;96.93
11499;BME280;5806;48.748;9.278;2023-08-06T01:09:16;99829.02;;;15.26;97.26
11499;BME280;5806;48.748;9.278;2023-08-06T01:12:06;99831.55;;;15.23;97.96
11499;BME280;5806;48.748;9.278;2023-08-06T01:14:33;99830.20;;;15.20;98.41
11499;BME280;5806;48.748;9.278;2023-08-06T01:16:58;99820.27;;;15.19;97.64
11499;BME280;5806;48.748;9.278;2023-08-06T01:19:26;99812.95;;;15.12;98.17
11499;BME280;5806;48.748;9.278;2023-08-06T01:21:54;99817.41;;;15.29;97.58
11499;BME280;5806;48.748;9.278;2023-08-06T01:24:22;99810.09;;;15.20;98.52
11499;BME280;5806;48.748;9.278;2023-08-06T01:26:53;99812.84;;;15.20;98.68
11499;BME280;5806;48.748;9.278;2023-08-06T01:31:52;99812.84;;;15.20;97.80
11499;BME280;5806;48.748;9.278;2023-08-06T01:34:23;99815.82;;;15.23;98.14
11499;BME280;5806;48.748;9.278;2023-08-06T01:36:51;99816.25;;;15.35;97.88
11499;BME280;5806;48.748;9.278;2023-08-06T01:39:19;99804.31;;;15.42;97.68
11499;BME280;5806;48.748;9.278;2023-08-06T01:41:48;99800.55;;;15.36;98.03
11499;BME280;5806;48.748;9.278;2023-08-06T01:44:16;99804.39;;;15.37;97.50
11499;BME280;5806;48.748;9.278;2023-08-06T01:46:44;99782.36;;;15.14;96.97
11499;BME280;5806;48.748;9.278;2023-08-06T01:49:11;99789.45;;;15.41;97.69
11499;BME280;5806;48.748;9.278;2023-08-06T01:51:39;99788.15;;;15.36;97.70
11499;BME280;5806;48.748;9.278;2023-08-06T01:54:06;99788.11;;;15.38;97.56
11499;BME280;5806;48.748;9.278;2023-08-06T01:56:34;99789.49;;;15.38;97.64
11499;BME280;5806;48.748;9.278;2023-08-06T01:59:01;99794.20;;;15.38;97.72
11499;BME280;5806;48.748;9.278;2023-08-06T02:01:29;99786.27;;;15.29;98.31
11499;BME280;5806;48.748;9.278;2023-08-06T02:03:57;99783.19;;;15.33;97.62
11499;BME280;5806;48.748;9.278;2023-08-06T02:06:24;99779.67;;;15.30;97.58
11499;BME280;5806;48.748;9.278;2023-08-06T02:08:52;99770.66;;;15.24;97.57
11499;BME280;5806;48.748;9.278;2023-08-06T02:11:19;99774.13;;;15.32;97.92
11499;BME280;5806;48.748;9.278;2023-08-06T02:13:46;99777.25;;;15.26;98.40
11499;BME280;5806;48.748;9.278;2023-08-06T02:16:14;99766.56;;;15.19;98.25
11499;BME280;5806;48.748;9.278;2023-08-06T02:18:42;99767.28;;;15.27;98.87
11499;BME280;5806;48.748;9.278;2023-08-06T02:21:09;99762.64;;;15.25;98.79
11499;BME280;5806;48.748;9.278;2023-08-06T02:23:37;99764.14;;;15.15;98.97
11499;BME280;5806;48.748;9.278;2023-08-06T02:26:05;99770.05;;;15.06;99.03
11499;BME280;5806;48.748;9.278;2023-08-06T02:28:32;99770.11;;;15.22;98.70
11499;BME280;5806;48.748;9.278;2023-08-06T02:31:00;99781.72;;;15.19;98.19
11499;BME280;5806;48.748;9.278;2023-08-06T02:33:28;99772.91;;;15.20;98.26
11499;BME280;5806;48.748;9.278;2023-08-06T02:36:02;99767.28;;;15.30;98.03
11499;BME280;5806;48.748;9.278;2023-08-06T02:38:33;99775.19;;;15.13;98.15
11499;BME280;5806;48.748;9.278;2023-08-06T02:41:02;99773.16;;;15.21;97.70
11499;BME280;5806;48.748;9.278;2023-08-06T02:43:30;99764.42;;;15.16;97.68
11499;BME280;5806;48.748;9.278;2023-08-06T02:45:58;99766.60;;;15.17;97.81
11499;BME280;5806;48.748;9.278;2023-08-06T02:48:26;99754.09;;;15.27;97.39
11499;BME280;5806;48.748;9.278;2023-08-06T02:50:58;99755.72;;;15.28;97.71
11499;BME280;5806;48.748;9.278;2023-08-06T02:53:26;99756.09;;;15.21;98.34
11499;BME280;5806;48.748;9.278;2023-08-06T02:55:53;99749.70;;;15.23;98.16
11499;BME280;5806;48.748;9.278;2023-08-06T02:58:21;99749.37;;;15.30;98.12
11499;BME280;5806;48.748;9.278;2023-08-06T03:01:03;99744.06;;;15.36;97.29
11499;BME280;5806;48.748;9.278;2023-08-06T03:03:32;99743.40;;;15.44;97.19
11499;BME280;5806;48.748;9.278;2023-08-06T03:05:59;99743.61;;;15.26;97.40
11499;BME280;5806;48.748;9.278;2023-08-06T03:08:27;99745.49;;;15.31;96.14
11499;BME280;5806;48.748;9.278;2023-08-06T03:10:55;99739.39;;;15.34;96.16
11499;BME280;5806;48.748;9.278;2023-08-06T03:13:22;99739.02;;;15.43;96.87
11499;BME280;5806;48.748;9.278;2023-08-06T03:15:55;99737.14;;;15.38;98.13
11499;BME280;5806;48.748;9.278;2023-08-06T03:18:23;99730.30;;;15.33;97.62
11499;BME280;5806;48.748;9.278;2023-08-06T03:20:52;99726.87;;;15.44;97.60
11499;BME280;5806;48.748;9.278;2023-08-06T03:23:20;99725.74;;;15.45;97.15
11499;BME280;5806;48.748;9.278;2023-08-06T03:25:48;99721.48;;;15.34;97.21
11499;BME280;5806;48.748;9.278;2023-08-06T03:28:15;99714.61;;;15.31;97.83
11499;BME280;5806;48.748;9.278;2023-08-06T03:30:43;99722.95;;;15.26;97.14
11499;BME280;5806;48.748;9.278;2023-08-06T03:33:10;99722.11;;;15.28;96.49
11499;BME280;5806;48.748;9.278;2023-08-06T03:35:38;99722.56;;;15.38;96.83
11499;BME280;5806;48.748;9.278;2023-08-06T03:38:05;99725.82;;;15.40;97.35
11499;BME280;5806;48.748;9.278;2023-08-06T03:40:35;99721.10;;;15.43;97.06
11499;BME280;5806;48.748;9.278;2023-08-06T03:43:03;99728.45;;;15.47;96.51
11499;BME280;5806;48.748;9.278;2023-08-06T03:45:30;99724.19;;;15.39;96.78
11499;BME280;5806;48.748;9.278;2023-08-06T03:47:58;99725.23;;;15.43;94.90
11499;BME280;5806;48.748;9.278;2023-08-06T03:50:25;99725.33;;;15.35;96.10
11499;BME280;5806;48.748;9.278;2023-08-06T03:52:53;99712.84;;;15.43;95.85
11499;BME280;5806;48.748;9.278;2023-08-06T03:55:21;99723.23;;;15.46;96.92
11499;BME280;5806;48.748;9.278;2023-08-06T03:57:48;99722.20;;;15.42;96.70
11499;BME280;5806;48.748;9.278;2023-08-06T04:00:16;99722.86;;;15.36;97.86
11499;BME280;5806;48.748;9.278;2023-08-06T04:02:43;99724.23;;;15.36;96.69
11499;BME280;5806;48.748;9.278;2023-08-06T04:05:11;99726.32;;;15.44;95.95
11499;BME280;5806;48.748;9.278;2023-08-06T04:07:39;99718.73;;;15.34;96.46
11499;BME280;5806;48.748;9.278;2023-08-06T04:10:06;99717.90;;;15.33;96.90
11499;BME280;5806;48.748;9.278;2023-08-06T04:12:34;99723.74;;;15.29;97.13
11499;BME280;5806;48.748;9.278;2023-08-06T04:15:06;99722.28;;;15.34;97.22
11499;BME280;5806;48.748;9.278;2023-08-06T04:17:34;99722.02;;;15.36;97.85
11499;BME280;5806;48.748;9.278;2023-08-06T04:20:01;99721.36;;;15.23;98.43
11499;BME280;5806;48.748;9.278;2023-08-06T04:22:29;99723.95;;;15.33;99.17
11499;BME280;5806;48.748;9.278;2023-08-06T04:24:56;99720.95;;;15.32;98.42
11499;BME280;5806;48.748;9.278;2023-08-06T04:27:23;99715.77;;;15.28;98.33
11499;BME280;5806;48.748;9.278;2023-08-06T04:29:51;99715.85;;;15.23;98.81
11499;BME280;5806;48.748;9.278;2023-08-06T04:32:18;99713.52;;;15.32;98.25
11499;BME280;5806;48.748;9.278;2023-08-06T04:34:46;99712.13;;;15.35;98.40
11499;BME280;5806;48.748;9.278;2023-08-06T04:37:14;99709.43;;;15.27;99.27
11499;BME280;5806;48.748;9.278;2023-08-06T04:39:41;99710.71;;;15.37;99.00
11499;BME280;5806;48.748;9.278;2023-08-06T04:42:09;99712.80;;;15.24;98.92
11499;BME280;5806;48.748;9.278;2023-08-06T04:44:36;99716.52;;;15.33;99.06
11499;BME280;5806;48.748;9.278;2023-08-06T04:47:04;99713.81;;;15.31;99.54
11499;BME280;5806;48.748;9.278;2023-08-06T04:49:32;99717.36;;;15.31;99.40
11499;BME280;5806;48.748;9.278;2023-08-06T04:51:59;99705.67;;;15.21;99.90
11499;BME280;5806;48.748;9.278;2023-08-06T04:54:26;99707.77;;;15.29;99.96
11499;BME280;5806;48.748;9.278;2023-08-06T04:56:54;99708.30;;;15.31;99.71
11499;BME280;5806;48.748;9.278;2023-08-06T04:59:21;99713.64;;;15.22;100.00
11499;BME280;5806;48.748;9.278;2023-08-06T05:01:49;99711.30;;;15.32;100.00
11499;BME280;5806;48.748;9.278;2023-08-06T05:04:16;99712.22;;;15.25;99.91
11499;BME280;5806;48.748;9.278;2023-08-06T05:06:44;99717.07;;;15.33;100.00
11499;BME280;5806;48.748;9.278;2023-08-06T05:09:11;99716.39;;;15.22;99.84
11499;BME280;5806;48.748;9.278;2023-08-06T05:11:39;99709.64;;;15.33;100.00
11499;BME280;5806;48.748;9.278;2023-08-06T05:14:06;99717.36;;;15.34;100.00
11499;BME280;5806;48.748;9.278;2023-08-06T05:16:34;99712.01;;;15.42;99.65
11499;BME280;5806;48.748;9.278;2023-08-06T05:19:01;99715.97;;;15.36;99.47
11499;BME280;5806;48.748;9.278;2023-08-06T05:21:29;99714.02;;;15.37;100.00
11499;BME280;5806;48.748;9.278;2023-08-06T05:23:56;99715.93;;;15.39;100.00
11499;BME280;5806;48.748;9.278;2023-08-06T05:26:24;99717.44;;;15.47;100.00
11499;BME280;5806;48.748;9.278;2023-08-06T05:28:51;99714.55;;;15.39;99.47
11499;BME280;5806;48.748;9.278;2023-08-06T05:31:18;99717.27;;;15.41;99.62
11499;BME280;5806;48.748;9.278;2023-08-06T05:33:46;99724.45;;;15.40;99.49
11499;BME280;5806;48.748;9.278;2023-08-06T05:36:13;99727.37;;;15.46;99.94
11499;BME280;5806;48.748;9.278;2023-08-06T05:38:41;99723.20;;;15.30;100.00
11499;BME280;5806;48.748;9.278;2023-08-06T05:41:08;99724.70;;;15.41;99.86
11499;BME280;5806;48.748;9.278;2023-08-06T05:43:38;99722.48;;;15.43;99.89
11499;BME280;5806;48.748;9.278;2023-08-06T05:46:05;99721.10;;;15.43;100.00
11499;BME280;5806;48.748;9.278;2023-08-06T05:48:33;99727.08;;;15.47;100.00
11499;BME280;5806;48.748;9.278;2023-08-06T05:51:00;99727.66;;;15.47;100.00
11499;BME280;5806;48.748;9.278;2023-08-06T05:53:28;99728.16;;;15.49;100.00
11499;BME280;5806;48.748;9.278;2023-08-06T05:55:55;99727.03;;;15.52;100.00
11499;BME280;5806;48.748;9.278;2023-08-06T05:58:24;99727.03;;;15.50;100.00
11499;BME280;5806;48.748;9.278;2023-08-06T06:00:53;99734.30;;;15.62;100.00
11499;BME280;5806;48.748;9.278;2023-08-06T06:03:21;99732.70;;;15.58;100.00
11499;BME280;5806;48.748;9.278;2023-08-06T06:05:48;99727.58;;;15.52;100.00
11499;BME280;5806;48.748;9.278;2023-08-06T06:08:16;99731.16;;;15.52;100.00
11499;BME280;5806;48.748;9.278;2023-08-06T06:10:44;99726.65;;;15.59;100.00
11499;BME280;5806;48.748;9.278;2023-08-06T06:13:11;99729.28;;;15.66;100.00
11499;BME280;5806;48.748;9.278;2023-08-06T06:15:38;99736.58;;;15.76;100.00
11499;BME280;5806;48.748;9.278;2023-08-06T06:18:06;99729.84;;;15.82;100.00
11499;BME280;5806;48.748;9.278;2023-08-06T06:20:33;99731.06;;;15.76;100.00
11499;BME280;5806;48.748;9.278;2023-08-06T06:23:01;99742.93;;;15.74;100.00
11499;BME280;5806;48.748;9.278;2023-08-06T06:25:28;99741.50;;;15.79;100.00
11499;BME280;5806;48.748;9.278;2023-08-06T06:27:56;99745.25;;;15.85;100.00
11499;BME280;5806;48.748;9.278;2023-08-06T06:30:25;99745.16;;;15.90;100.00
11499;BME280;5806;48.748;9.278;2023-08-06T06:32:52;99746.05;;;15.86;100.00
11499;BME280;5806;48.748;9.278;2023-08-06T06:35:20;99747.32;;;15.93;100.00
11499;BME280;5806;48.748;9.278;2023-08-06T06:37:47;99743.92;;;15.99;100.00
11499;BME280;5806;48.748;9.278;2023-08-06T06:40:15;99746.88;;;15.86;100.00
11499;BME280;5806;48.748;9.278;2023-08-06T06:42:43;99749.94;;;16.01;100.00
11499;BME280;5806;48.748;9.278;2023-08-06T06:45:10;99751.32;;;16.01;100.00
11499;BME280;5806;48.748;9.278;2023-08-06T06:47:38;99752.75;;;15.98;99.95
11499;BME280;5806;48.748;9.278;2023-08-06T06:50:06;99749.83;;;15.92;100.00
11499;BME280;5806;48.748;9.278;2023-08-06T06:52:33;99752.39;;;15.86;100.00
11499;BME280;5806;48.748;9.278;2023-08-06T06:55:01;99750.97;;;15.89;100.00
11499;BME280;5806;48.748;9.278;2023-08-06T06:57:28;99755.00;;;15.96;100.00
11499;BME280;5806;48.748;9.278;2023-08-06T06:59:55;99759.89;;;15.99;100.00
11499;BME280;5806;48.748;9.278;2023-08-06T07:02:23;99753.47;;;15.88;100.00
11499;BME280;5806;48.748;9.278;2023-08-06T07:04:50;99754.31;;;15.88;100.00
11499;BME280;5806;48.748;9.278;2023-08-06T07:07:18;99757.61;;;15.88;100.00
11499;BME280;5806;48.748;9.278;2023-08-06T07:09:45;99753.22;;;15.87;100.00
11499;BME280;5806;48.748;9.278;2023-08-06T07:12:12;99759.83;;;15.88;100.00
11499;BME280;5806;48.748;9.278;2023-08-06T07:14:40;99757.77;;;15.94;99.59
11499;BME280;5806;48.748;9.278;2023-08-06T07:17:07;99762.25;;;15.90;99.25
11499;BME280;5806;48.748;9.278;2023-08-06T07:19:35;99756.28;;;15.85;99.24
11499;BME280;5806;48.748;9.278;2023-08-06T07:22:02;99761.41;;;15.92;99.65
11499;BME280;5806;48.748;9.278;2023-08-06T07:24:30;99764.81;;;16.02;99.57
11499;BME280;5806;48.748;9.278;2023-08-06T07:26:57;99768.80;;;15.94;99.13
11499;BME280;5806;48.748;9.278;2023-08-06T07:29:24;99769.83;;;16.00;99.56
11499;BME280;5806;48.748;9.278;2023-08-06T07:31:52;99774.11;;;15.90;99.11
11499;BME280;5806;48.748;9.278;2023-08-06T07:34:19;99770.45;;;15.79;99.94
11499;BME280;5806;48.748;9.278;2023-08-06T07:36:47;99768.30;;;15.92;100.00
11499;BME280;5806;48.748;9.278;2023-08-06T07:39:14;99772.94;;;15.94;99.86
11499;BME280;5806;48.748;9.278;2023-08-06T07:41:43;99774.07;;;15.93;100.00
11499;BME280;5806;48.748;9.278;2023-08-06T07:44:12;99777.32;;;15.97;99.60
11499;BME280;5806;48.748;9.278;2023-08-06T07:46:39;99780.15;;;16.08;99.83
11499;BME280;5806;48.748;9.278;2023-08-06T07:49:08;99779.11;;;16.04;99.43
11499;BME280;5806;48.748;9.278;2023-08-06T07:51:37;99777.27;;;16.00;99.04
11499;BME280;5806;48.748;9.278;2023-08-06T07:54:05;99778.36;;;16.01;99.45
11499;BME280;5806;48.748;9.278;2023-08-06T07:56:33;99788.30;;;16.00;100.00
11499;BME280;5806;48.748;9.278;2023-08-06T07:59:02;99784.42;;;16.01;100.00
11499;BME280;5806;48.748;9.278;2023-08-06T08:01:29;99782.75;;;16.02;100.00
11499;BME280;5806;48.748;9.278;2023-08-06T08:03:57;99785.99;;;16.07;99.67
11499;BME280;5806;48.748;9.278;2023-08-06T08:06:24;99784.82;;;16.10;99.74
11499;BME280;5806;48.748;9.278;2023-08-06T08:08:52;99781.86;;;16.07;100.00
11499;BME280;5806;48.748;9.278;2023-08-06T08:11:21;99786.25;;;16.08;99.21
11499;BME280;5806;48.748;9.278;2023-08-06T08:13:48;99781.58;;;16.06;100.00
11499;BME280;5806;48.748;9.278;2023-08-06T08:16:16;99789.25;;;16.09;100.00
11499;BME280;5806;48.748;9.278;2023-08-06T08:18:43;99782.61;;;16.10;99.78
11499;BME280;5806;48.748;9.278;2023-08-06T08:21:11;99788.66;;;16.12;99.25
11499;BME280;5806;48.748;9.278;2023-08-06T08:23:38;99786.16;;;16.13;99.80
11499;BME280;5806;48.748;9.278;2023-08-06T08:26:07;99785.81;;;16.17;100.00
11499;BME280;5806;48.748;9.278;2023-08-06T08:28:35;99790.20;;;16.18;100.00
11499;BME280;5806;48.748;9.278;2023-08-06T08:31:02;99794.83;;;16.22;100.00
11499;BME280;5806;48.748;9.278;2023-08-06T08:33:30;99797.80;;;16.26;100.00
11499;BME280;5806;48.748;9.278;2023-08-06T08:35:57;99800.09;;;16.21;99.94
11499;BME280;5806;48.748;9.278;2023-08-06T08:38:24;99796.98;;;16.25;99.13
11499;BME280;5806;48.748;9.278;2023-08-06T08:40:53;99800.00;;;16.26;99.19
11499;BME280;5806;48.748;9.278;2023-08-06T08:43:21;99801.03;;;16.30;99.09
11499;BME280;5806;48.748;9.278;2023-08-06T08:45:53;99800.73;;;16.32;99.73
11499;BME280;5806;48.748;9.278;2023-08-06T08:48:25;99809.61;;;16.29;100.00
11499;BME280;5806;48.748;9.278;2023-08-06T08:50:56;99806.30;;;16.29;100.00
11499;BME280;5806;48.748;9.278;2023-08-06T08:53:24;99813.31;;;16.22;97.70
11499;BME280;5806;48.748;9.278;2023-08-06T08:55:53;99809.11;;;16.27;98.47
11499;BME280;5806;48.748;9.278;2023-08-06T08:58:21;99809.61;;;16.29;99.30
11499;BME280;5806;48.748;9.278;2023-08-06T09:00:49;99813.75;;;16.29;100.00
11499;BME280;5806;48.748;9.278;2023-08-06T09:03:17;99810.65;;;16.33;99.83
11499;BME280;5806;48.748;9.278;2023-08-06T09:05:45;99818.08;;;16.35;100.00
11499;BME280;5806;48.748;9.278;2023-08-06T09:08:17;99819.05;;;16.44;100.00
11499;BME280;5806;48.748;9.278;2023-08-06T09:10:48;99824.89;;;16.40;100.00
11499;BME280;5806;48.748;9.278;2023-08-06T09:13:16;99830.48;;;16.53;100.00
11499;BME280;5806;48.748;9.278;2023-08-06T09:15:44;99829.66;;;16.53;100.00
11499;BME280;5806;48.748;9.278;2023-08-06T09:18:12;99835.13;;;16.55;100.00
11499;BME280;5806;48.748;9.278;2023-08-06T09:20:40;99833.70;;;16.58;100.00
11499;BME280;5806;48.748;9.278;2023-08-06T09:23:09;99830.83;;;16.49;100.00
11499;BME280;5806;48.748;9.278;2023-08-06T09:25:39;99828.91;;;16.63;100.00
11499;BME280;5806;48.748;9.278;2023-08-06T09:28:07;99826.10;;;16.66;100.00
11499;BME280;5806;48.748;9.278;2023-08-06T09:30:36;99831.45;;;16.76;100.00
11499;BME280;5806;48.748;9.278;2023-08-06T09:33:09;99829.30;;;16.73;98.99
11499;BME280;5806;48.748;9.278;2023-08-06T09:35:41;99836.98;;;16.76;100.00
11499;BME280;5806;48.748;9.278;2023-08-06T09:38:09;99835.30;;;16.77;100.00
11499;BME280;5806;48.748;9.278;2023-08-06T09:40:38;99837.66;;;16.84;99.54
11499;BME280;5806;48.748;9.278;2023-08-06T09:43:05;99837.68;;;16.97;99.67
11499;BME280;5806;48.748;9.278;2023-08-06T09:45:35;99842.30;;;16.86;97.56
11499;BME280;5806;48.748;9.278;2023-08-06T09:48:08;99838.94;;;16.89;100.00
11499;BME280;5806;48.748;9.278;2023-08-06T09:50:38;99848.52;;;16.78;100.00
11499;BME280;5806;48.748;9.278;2023-08-06T09:53:07;99855.53;;;16.73;100.00
11499;BME280;5806;48.748;9.278;2023-08-06T09:55:35;99853.16;;;16.66;100.00
11499;BME280;5806;48.748;9.278;2023-08-06T09:58:02;99858.59;;;16.71;100.00
11499;BME280;5806;48.748;9.278;2023-08-06T10:00:32;99860.61;;;16.66;100.00
11499;BME280;5806;48.748;9.278;2023-08-06T10:03:01;99868.00;;;16.70;100.00
11499;BME280;5806;48.748;9.278;2023-08-06T10:05:30;99871.84;;;16.72;100.00
11499;BME280;5806;48.748;9.278;2023-08-06T10:08:00;99876.44;;;16.76;100.00
11499;BME280;5806;48.748;9.278;2023-08-06T10:10:30;99873.67;;;16.76;100.00
11499;BME280;5806;48.748;9.278;2023-08-06T10:12:59;99871.95;;;16.64;99.91
11499;BME280;5806;48.748;9.278;2023-08-06T10:15:29;99879.44;;;16.64;100.00
11499;BME280;5806;48.748;9.278;2023-08-06T10:17:58;99878.75;;;16.56;100.00
11499;BME280;5806;48.748;9.278;2023-08-06T10:20:27;99876.44;;;16.60;99.66
11499;BME280;5806;48.748;9.278;2023-08-06T10:23:05;99881.07;;;16.65;100.00
11499;BME280;5806;48.748;9.278;2023-08-06T10:25:35;99890.88;;;16.73;100.00
11499;BME280;5806;48.748;9.278;2023-08-06T10:28:10;99892.95;;;16.65;100.00
11499;BME280;5806;48.748;9.278;2023-08-06T10:30:44;99907.29;;;16.49;100.00
11499;BME280;5806;48.748;9.278;2023-08-06T10:33:12;99906.36;;;16.19;100.00
11499;BME280;5806;48.748;9.278;2023-08-06T10:35:47;99913.84;;;15.97;100.00
11499;BME280;5806;48.748;9.278;2023-08-06T10:38:22;99904.77;;;15.94;100.00
11499;BME280;5806;48.748;9.278;2023-08-06T10:43:32;99918.67;;;15.87;100.00
11499;BME280;5806;48.748;9.278;2023-08-06T10:46:02;99932.72;;;15.67;99.45
11499;BME280;5806;48.748;9.278;2023-08-06T10:48:38;99935.19;;;15.66;99.84
11499;BME280;5806;48.748;9.278;2023-08-06T10:51:07;99933.41;;;15.54;100.00
11499;BME280;5806;48.748;9.278;2023-08-06T10:53:33;99937.86;;;15.50;99.25
11499;BME280;5806;48.748;9.278;2023-08-06T10:56:01;99937.22;;;15.58;100.00
11499;BME280;5806;48.748;9.278;2023-08-06T10:58:33;99943.82;;;15.59;100.00
11499;BME280;5806;48.748;9.278;2023-08-06T11:01:00;99961.90;;;15.47;100.00
11499;BME280;5806;48.748;9.278;2023-08-06T11:03:28;99963.69;;;15.59;99.10
11499;BME280;5806;48.748;9.278;2023-08-06T11:05:56;99966.35;;;15.43;99.93
11499;BME280;5806;48.748;9.278;2023-08-06T11:08:32;99960.30;;;15.41;99.75
11499;BME280;5806;48.748;9.278;2023-08-06T11:10:54;99984.90;;;15.35;100.00
11499;BME280;5806;48.748;9.278;2023-08-06T11:13:22;99984.78;;;15.45;99.27
11499;BME280;5806;48.748;9.278;2023-08-06T11:15:52;99988.52;;;15.28;97.54
11499;BME280;5806;48.748;9.278;2023-08-06T11:18:20;99989.83;;;15.33;98.07
11499;BME280;5806;48.748;9.278;2023-08-06T11:20:47;99989.38;;;15.23;97.79
11499;BME280;5806;48.748;9.278;2023-08-06T11:23:15;100001.77;;;15.26;98.70
11499;BME280;5806;48.748;9.278;2023-08-06T11:28:33;100004.53;;;15.26;96.87
11499;BME280;5806;48.748;9.278;2023-08-06T11:31:01;100007.62;;;15.17;98.47
11499;BME280;5806;48.748;9.278;2023-08-06T11:33:30;100008.05;;;15.29;97.61
11499;BME280;5806;48.748;9.278;2023-08-06T11:35:59;100015.18;;;15.37;98.12
11499;BME280;5806;48.748;9.278;2023-08-06T11:38:28;100023.27;;;15.24;95.57
11499;BME280;5806;48.748;9.278;2023-08-06T11:40:56;100026.25;;;15.27;96.34
11499;BME280;5806;48.748;9.278;2023-08-06T11:43:24;100027.32;;;15.34;96.79
11499;BME280;5806;48.748;9.278;2023-08-06T11:45:51;100034.08;;;15.18;97.00
11499;BME280;5806;48.748;9.278;2023-08-06T11:48:20;100035.77;;;15.14;96.73
11499;BME280;5806;48.748;9.278;2023-08-06T11:50:48;100034.49;;;15.32;97.09
11499;BME280;5806;48.748;9.278;2023-08-06T11:53:15;100032.59;;;15.28;97.17
11499;BME280;5806;48.748;9.278;2023-08-06T11:55:43;100036.41;;;15.32;96.89
11499;BME280;5806;48.748;9.278;2023-08-06T11:58:11;100035.02;;;15.37;96.41
11499;BME280;5806;48.748;9.278;2023-08-06T12:00:39;100035.79;;;15.42;96.74
11499;BME280;5806;48.748;9.278;2023-08-06T12:03:06;100042.49;;;15.29;98.57
11499;BME280;5806;48.748;9.278;2023-08-06T12:05:34;100037.80;;;15.32;97.87
11499;BME280;5806;48.748;9.278;2023-08-06T12:08:02;100042.39;;;15.44;99.09
11499;BME280;5806;48.748;9.278;2023-08-06T12:10:31;100044.63;;;15.39;97.90
11499;BME280;5806;48.748;9.278;2023-08-06T12:13:00;100045.72;;;15.41;98.75
11499;BME280;5806;48.748;9.278;2023-08-06T12:15:28;100046.92;;;15.30;97.94
11499;BME280;5806;48.748;9.278;2023-08-06T12:17:56;100049.09;;;15.30;97.75
11499;BME280;5806;48.748;9.278;2023-08-06T12:20:23;100051.47;;;15.47;98.64
11499;BME280;5806;48.748;9.278;2023-08-06T12:22:51;100050.14;;;15.39;96.86
11499;BME280;5806;48.748;9.278;2023-08-06T12:25:19;100052.36;;;15.40;97.80
11499;BME280;5806;48.748;9.278;2023-08-06T12:27:47;100058.67;;;15.43;97.37
11499;BME280;5806;48.748;9.278;2023-08-06T12:30:14;100054.39;;;15.55;97.05
11499;BME280;5806;48.748;9.278;2023-08-06T12:32:41;100061.63;;;15.49;95.41
11499;BME280;5806;48.748;9.278;2023-08-06T12:35:09;100058.30;;;15.52;95.68
11499;BME280;5806;48.748;9.278;2023-08-06T12:37:36;100065.30;;;15.39;97.63
11499;BME280;5806;48.748;9.278;2023-08-06T12:40:06;100064.02;;;15.60;97.40
11499;BME280;5806;48.748;9.278;2023-08-06T12:42:34;100071.80;;;15.53;96.13
11499;BME280;5806;48.748;9.278;2023-08-06T12:45:01;100070.05;;;15.62;96.52
11499;BME280;5806;48.748;9.278;2023-08-06T12:47:29;100078.05;;;15.61;96.93
11499;BME280;5806;48.748;9.278;2023-08-06T12:49:56;100082.82;;;15.53;97.44
11499;BME280;5806;48.748;9.278;2023-08-06T12:52:24;100080.78;;;15.64;96.79
11499;BME280;5806;48.748;9.278;2023-08-06T12:54:51;100087.91;;;15.67;97.70
11499;BME280;5806;48.748;9.278;2023-08-06T12:57:18;100093.08;;;15.74;97.33
11499;BME280;5806;48.748;9.278;2023-08-06T12:59:46;100090.48;;;15.59;95.68
11499;BME280;5806;48.748;9.278;2023-08-06T13:02:14;100100.97;;;15.57;94.57
11499;BME280;5806;48.748;9.278;2023-08-06T13:04:42;100095.40;;;15.62;96.55
11499;BME280;5806;48.748;9.278;2023-08-06T13:07:09;100103.41;;;15.61;96.15
11499;BME280;5806;48.748;9.278;2023-08-06T13:09:36;100110.43;;;15.46;95.48
11499;BME280;5806;48.748;9.278;2023-08-06T13:12:04;100110.09;;;15.55;96.69
11499;BME280;5806;48.748;9.278;2023-08-06T13:14:32;100115.55;;;15.60;97.19
11499;BME280;5806;48.748;9.278;2023-08-06T13:17:00;100119.91;;;15.68;96.95